Ginys del Meteocat

Dades de l'estació automàtica Pujalt

?
?
Resum diari 22:30 TU
Dades diàries de l'estació meteorològica
Temperatura mitjana 6.8 °C
Temperatura màxima 10.6 °C 14:58 TU
Temperatura mínima 3.5 °C 7:22 TU
Humitat relativa mitjana 77%
Precipitació acumulada 0.0 mm
Ratxa màxima del vent (10 m) 14.8 km/h - 151º 4:50 TU
Irradiació solar global 10.0 MJ/m2

El tram horari està expressat en Temps Universal (TU). Cal sumar una hora en horari d'hivern i dues en horari d'estiu per passar a l'hora oficial.

Pujalt

Metadades estació meteorol´gica
Municipi Pujalt
Comarca Anoia
Altitud 747 m
Data alta 06.04.2018
Estat actual Operativa
Dades de període
Període
TU
TM
°C
TX
°C
TN
°C
HRM
%
PPT
mm
VVM (10 m)
km/h
DVM (10 m)
graus
VVX (10 m)
km/h
RS
W/m2
00:00 - 00:30 5.8 6.0 5.6 88 0.0 8.3 79 10.8 0
00:30 - 01:00 5.7 5.9 5.6 88 0.0 9.0 83 11.9 0
01:00 - 01:30 5.8 5.9 5.5 86 0.0 7.9 81 11.9 0
01:30 - 02:00 6.0 6.2 5.9 82 0.0 8.6 86 11.5 0
02:00 - 02:30 5.9 6.2 5.5 80 0.0 9.0 92 11.9 0
02:30 - 03:00 5.6 6.0 5.2 81 0.0 10.4 94 14.4 0
03:00 - 03:30 5.3 5.6 5.1 82 0.0 10.1 96 13.0 0
03:30 - 04:00 5.7 6.1 5.5 76 0.0 10.8 100 13.0 0
04:00 - 04:30 6.2 6.3 6.2 66 0.0 9.4 112 10.4 0
04:30 - 05:00 5.9 6.3 5.2 69 0.0 10.1 134 14.8 0
05:00 - 05:30 5.4 5.6 5.2 78 0.0 10.8 153 14.0 0
05:30 - 06:00 5.6 5.8 5.3 76 0.0 10.4 177 13.0 0
06:00 - 06:30 4.5 5.2 4.1 81 0.0 6.8 227 10.1 0
06:30 - 07:00 4.4 4.6 4.0 83 0.0 5.8 272 10.4 0
07:00 - 07:30 4.1 4.6 3.5 84 0.0 4.0 281 6.8 5
07:30 - 08:00 4.3 4.5 4.2 83 0.0 4.0 242 5.4 42
08:00 - 08:30 5.1 5.4 4.6 81 0.0 2.9 240 4.3 106
08:30 - 09:00 5.7 6.2 5.3 81 0.0 5.4 218 7.2 184
09:00 - 09:30 6.7 7.2 6.3 78 0.0 4.0 233 6.8 261
09:30 - 10:00 7.6 7.9 7.2 74 0.0 2.2 291 5.8 333
10:00 - 10:30 8.4 8.8 7.9 70 0.0 2.2 313 4.3 390
10:30 - 11:00 9.1 9.5 8.7 68 0.0 4.7 265 13.7 438
11:00 - 11:30 9.4 9.8 9.0 67 0.0 6.8 244 13.7 472
11:30 - 12:00 9.3 9.6 9.0 69 0.0 6.8 265 11.5 482
12:00 - 12:30 9.6 9.8 9.3 67 0.0 6.8 269 11.9 499
12:30 - 13:00 9.5 9.8 9.1 67 0.0 7.6 278 13.3 430
13:00 - 13:30 9.5 10.2 9.1 67 0.0 6.1 276 11.2 435
13:30 - 14:00 10.1 10.4 9.7 63 0.0 6.8 268 11.9 453
14:00 - 14:30 10.0 10.4 9.7 61 0.0 7.2 269 14.0 352
14:30 - 15:00 10.3 10.6 10.1 60 0.0 6.8 255 12.6 305
15:00 - 15:30 10.2 10.5 9.9 60 0.0 7.6 250 14.4 224
15:30 - 16:00 9.5 10.0 8.9 64 0.0 6.5 268 11.5 132
16:00 - 16:30 8.6 8.9 8.4 70 0.0 4.0 254 9.0 46
16:30 - 17:00 7.9 8.4 7.4 75 0.0 2.9 230 5.0 11
17:00 - 17:30 7.1 7.4 6.9 80 0.0 4.0 219 5.0 0
17:30 - 18:00 6.9 7.2 6.5 83 0.0 5.8 180 8.3 0
18:00 - 18:30 6.5 6.6 6.4 80 0.0 6.1 169 7.9 0
18:30 - 19:00 6.4 6.6 6.1 77 0.0 5.8 190 7.6 0
19:00 - 19:30 5.7 6.1 5.2 81 0.0 5.0 226 6.8 0
19:30 - 20:00 5.8 6.1 5.6 86 0.0 3.2 297 5.4 0
20:00 - 20:30 5.4 5.6 5.3 89 0.0 5.0 20 6.8 0
20:30 - 21:00 5.4 5.5 5.2 92 0.0 4.7 40 6.1 0
21:00 - 21:30 5.5 5.6 5.3 92 0.0 4.7 23 6.1 0
21:30 - 22:00 5.7 5.9 5.5 91 0.0 5.0 34 6.1 0
22:00 - 22:30 5.9 6.0 5.9 90 0.0 5.0 70 6.1 0
22:30 - 23:00 6.1 6.2 5.9 88 0.0 2.9 107 4.3 0
23:00 - 23:30 (s/d) (s/d) (s/d) (s/d) (s/d) (s/d) (s/d) (s/d) (s/d)

Les dades en taronja només han passat un control de qualitat automàtic. Resta pendent la seva validació definitiva.